Time;durP1;ratioP1;P1;durP2;ratioP2;P2;SDS_P1;SDS_P2;PMS_P1;PMS_P2;Temp;Humidity;BMP_temperature;BMP_pressure;BME280_temperature;BME280_humidity;BME280_pressure;Samples;Min_cycle;Max_cycle;Signal;HPM_P1;HPM_P2
2022/12/10 00:00:34;;;;;;;1999.90;999.90;;;0.20;99.90;;;;;;6727203;88;20601;-76
2022/12/10 00:10:39;;;;;;;1999.90;999.90;;;0.20;99.90;;;;;;6723493;88;20387;-76
2022/12/10 00:20:40;;;;;;;1999.90;999.90;;;-0.10;99.90;;;;;;6725958;88;20264;-76
2022/12/10 00:30:43;;;;;;;1999.90;999.90;;;0.00;99.90;;;;;;6725209;88;20252;-75
2022/12/10 00:40:43;;;;;;;1999.90;999.90;;;0.00;99.90;;;;;;6723323;88;20499;-76
2022/12/10 00:50:44;;;;;;;1999.90;999.90;;;0.30;99.90;;;;;;6726774;88;20214;-77
2022/12/10 01:00:44;;;;;;;1999.90;999.90;;;0.30;99.90;;;;;;6726539;88;20305;-77
2022/12/10 01:10:52;;;;;;;1999.90;999.90;;;0.30;99.90;;;;;;6725651;88;21084;-77
2022/12/10 01:20:52;;;;;;;1999.90;999.90;;;0.50;99.90;;;;;;6725170;88;20273;-76
2022/12/10 01:30:53;;;;;;;1999.90;999.90;;;0.40;99.90;;;;;;6721874;88;20185;-76
2022/12/10 01:40:53;;;;;;;1999.90;999.90;;;0.50;99.90;;;;;;6722785;88;20190;-76
2022/12/10 01:50:54;;;;;;;1999.90;999.90;;;0.70;99.90;;;;;;6722906;88;20797;-76
2022/12/10 02:01:14;;;;;;;1999.90;999.90;;;0.60;99.90;;;;;;6726949;88;20197;-77
2022/12/10 02:11:41;;;;;;;1999.90;999.90;;;0.60;99.90;;;;;;6722274;88;20630;-76
2022/12/10 02:21:47;;;;;;;1999.90;999.90;;;0.50;99.90;;;;;;6710216;88;20403;-76
2022/12/10 02:31:53;;;;;;;1999.90;999.90;;;0.50;99.90;;;;;;6723477;88;20289;-77
2022/12/10 02:41:55;;;;;;;1999.90;999.90;;;0.60;99.90;;;;;;6722729;88;20596;-76
2022/12/10 02:51:55;;;;;;;1999.90;999.90;;;0.60;99.90;;;;;;6719845;88;20514;-76
2022/12/10 03:02:08;;;;;;;1999.90;999.90;;;0.60;99.90;;;;;;6725648;88;20801;-75
2022/12/10 03:12:29;;;;;;;1999.90;999.90;;;0.60;99.90;;;;;;6734065;88;20212;-78
2022/12/10 03:22:32;;;;;;;1999.90;999.90;;;0.60;99.90;;;;;;6725170;88;20209;-76
2022/12/10 03:32:33;;;;;;;1999.90;999.90;;;0.70;99.90;;;;;;6728600;88;20251;-76
2022/12/10 03:42:36;;;;;;;1999.90;999.90;;;0.60;99.90;;;;;;6725736;88;20180;-76
2022/12/10 03:52:36;;;;;;;1999.90;999.90;;;0.60;99.90;;;;;;6736748;88;20275;-76
2022/12/10 04:02:37;;;;;;;1999.90;999.90;;;0.60;99.90;;;;;;6734934;77;20284;-76
2022/12/10 04:12:37;;;;;;;1999.90;999.90;;;0.60;99.90;;;;;;6740430;88;20322;-75
2022/12/10 04:32:57;;;;;;;1999.90;999.90;;;0.40;99.90;;;;;;6743177;88;20226;-74
2022/12/10 04:42:58;;;;;;;1999.90;999.90;;;0.20;99.90;;;;;;6739000;88;20346;-74
2022/12/10 04:52:58;;;;;;;1999.90;999.90;;;0.00;99.90;;;;;;6732193;88;20343;-75
2022/12/10 05:02:59;;;;;;;1999.90;999.90;;;0.00;99.90;;;;;;6735206;88;20246;-74
2022/12/10 05:12:59;;;;;;;1999.90;999.90;;;0.10;99.90;;;;;;6745260;88;20311;-74
2022/12/10 05:33:19;;;;;;;1999.90;999.90;;;0.00;99.90;;;;;;6740627;88;20622;-74
2022/12/10 05:43:20;;;;;;;1999.90;999.90;;;0.10;99.90;;;;;;6734455;88;20309;-74
2022/12/10 05:53:20;;;;;;;1999.90;999.90;;;0.10;99.90;;;;;;6737337;88;20231;-74
2022/12/10 06:03:21;;;;;;;1999.90;999.90;;;0.20;99.90;;;;;;6739871;88;20214;-74
2022/12/10 06:13:21;;;;;;;1999.90;999.90;;;0.30;99.90;;;;;;6736393;88;20681;-73
2022/12/10 06:23:22;;;;;;;1999.90;999.90;;;0.30;99.90;;;;;;6737300;88;20636;-75
2022/12/10 06:33:23;;;;;;;1999.90;999.90;;;0.20;99.90;;;;;;6737309;88;20315;-74
2022/12/10 06:43:23;;;;;;;1999.90;999.90;;;0.10;99.90;;;;;;6737331;88;20206;-73
2022/12/10 06:53:24;;;;;;;1999.90;999.90;;;0.00;99.90;;;;;;6744997;88;20202;-74
2022/12/10 07:03:24;;;;;;;1999.90;999.90;;;0.00;99.90;;;;;;6746516;88;20212;-75
2022/12/10 07:13:25;;;;;;;1999.90;999.90;;;0.00;99.90;;;;;;6745682;88;20192;-75
2022/12/10 07:23:26;;;;;;;1999.90;999.90;;;0.10;99.90;;;;;;6744755;88;20814;-76
2022/12/10 07:33:26;;;;;;;1999.90;999.90;;;-0.10;99.90;;;;;;6755531;88;20213;-76
2022/12/10 07:43:27;;;;;;;1999.90;999.90;;;0.10;99.90;;;;;;6745397;88;20196;-76
2022/12/10 07:53:27;;;;;;;1999.90;999.90;;;0.20;99.90;;;;;;6740168;88;20274;-75
2022/12/10 08:03:28;;;;;;;1999.90;999.90;;;0.20;99.90;;;;;;6751883;88;20723;-77
2022/12/10 08:13:29;;;;;;;1999.90;999.90;;;0.20;99.90;;;;;;6751082;88;20200;-76
2022/12/10 08:23:30;;;;;;;1999.90;999.90;;;0.40;99.90;;;;;;6752669;88;20224;-77
2022/12/10 08:33:33;;;;;;;1999.90;999.90;;;0.30;99.90;;;;;;6745420;88;20314;-77
2022/12/10 08:43:34;;;;;;;1999.90;999.90;;;0.40;99.90;;;;;;6742650;88;20512;-77
2022/12/10 08:53:35;;;;;;;1999.90;999.90;;;0.40;99.90;;;;;;6741059;88;20233;-76
2022/12/10 09:03:36;;;;;;;1999.90;999.90;;;0.70;99.90;;;;;;6738890;87;20213;-77
2022/12/10 09:13:37;;;;;;;1999.90;999.90;;;0.80;99.90;;;;;;6745211;88;20489;-77
2022/12/10 09:23:38;;;;;;;1999.90;999.90;;;0.90;99.90;;;;;;6745643;88;20308;-77
2022/12/10 09:33:39;;;;;;;1999.90;999.90;;;0.90;99.90;;;;;;6745308;88;20502;-76
2022/12/10 09:43:57;;;;;;;1999.90;999.90;;;1.10;99.90;;;;;;6735615;88;21070;-76
2022/12/10 09:54:00;;;;;;;1999.90;999.90;;;1.00;99.90;;;;;;6746864;88;20212;-76
2022/12/10 10:04:03;;;;;;;1999.90;999.90;;;1.10;99.90;;;;;;6745257;88;20200;-77
2022/12/10 10:14:44;;;;;;;1999.90;999.90;;;1.10;99.90;;;;;;6746987;77;20165;-79
2022/12/10 10:24:46;;;;;;;1999.90;999.90;;;1.30;99.90;;;;;;6723153;88;20209;-77
2022/12/10 10:34:56;;;;;;;1999.90;999.90;;;1.20;99.90;;;;;;6721268;88;20193;-78
2022/12/10 10:44:56;;;;;;;1999.90;999.90;;;1.10;99.90;;;;;;6720741;88;20210;-81
2022/12/10 10:54:57;;;;;;;1999.90;999.90;;;1.20;99.90;;;;;;6725703;88;20613;-78
2022/12/10 11:05:04;;;;;;;1999.90;999.90;;;1.20;99.90;;;;;;6730298;88;20280;-78
2022/12/10 11:15:23;;;;;;;1999.90;999.90;;;1.10;99.90;;;;;;6720292;88;20786;-78
2022/12/10 11:26:00;;;;;;;1999.90;999.90;;;1.20;99.90;;;;;;6737478;88;20200;-78
2022/12/10 11:36:13;;;;;;;1999.90;999.90;;;1.20;99.90;;;;;;6741144;88;20217;-79
2022/12/10 11:46:19;;;;;;;1999.90;999.90;;;1.40;99.90;;;;;;6744188;88;20672;-80
2022/12/10 11:56:37;;;;;;;1999.90;999.90;;;1.50;99.90;;;;;;6750900;88;20333;-80
2022/12/10 12:07:09;;;;;;;1999.90;999.90;;;1.70;99.90;;;;;;6733186;88;20173;-79
2022/12/10 12:17:16;;;;;;;1999.90;999.90;;;1.70;99.90;;;;;;6757806;88;20219;-80
2022/12/10 12:27:28;;;;;;;1999.90;999.90;;;1.70;99.90;;;;;;6750601;88;20274;-77
2022/12/10 12:37:40;;;;;;;1999.90;999.90;;;1.50;99.90;;;;;;6748185;88;20187;-81
2022/12/10 12:48:06;;;;;;;1999.90;999.90;;;1.80;99.90;;;;;;6747588;88;20206;-79
2022/12/10 12:58:17;;;;;;;1999.90;999.90;;;1.90;99.90;;;;;;6663248;89;20230;-80
2022/12/10 13:08:17;;;;;;;1999.90;999.90;;;2.10;99.90;;;;;;6724697;88;20253;-79
2022/12/10 13:18:33;;;;;;;1999.90;999.90;;;2.00;99.90;;;;;;6744028;88;20270;-80
2022/12/10 13:28:52;;;;;;;1999.90;999.90;;;2.00;99.90;;;;;;6741702;88;20201;-77
2022/12/10 13:39:05;;;;;;;1999.90;999.90;;;2.30;99.90;;;;;;6738434;88;20213;-80
2022/12/10 13:49:08;;;;;;;1999.90;999.90;;;2.50;99.90;;;;;;6744214;88;20329;-81
2022/12/10 13:59:28;;;;;;;1999.90;999.90;;;2.30;99.90;;;;;;6745784;88;20226;-81
2022/12/10 14:09:38;;;;;;;1999.90;999.90;;;2.30;99.90;;;;;;6739658;88;20181;-80
2022/12/10 14:19:39;;;;;;;1999.90;999.90;;;2.00;99.90;;;;;;6738232;88;20662;-79
2022/12/10 14:29:47;;;;;;;1999.90;999.90;;;2.10;99.90;;;;;;6734686;88;20184;-81
2022/12/10 14:39:48;;;;;;;1999.90;999.90;;;2.10;99.90;;;;;;6733619;88;20608;-81
2022/12/10 14:49:54;;;;;;;1999.90;999.90;;;2.00;99.90;;;;;;6735184;88;20218;-81
2022/12/10 14:59:59;;;;;;;1999.90;999.90;;;1.90;99.90;;;;;;6739192;88;20283;-82
2022/12/10 15:10:01;;;;;;;1999.90;999.90;;;1.50;99.90;;;;;;6741613;88;20693;-81
2022/12/10 15:20:01;;;;;;;1999.90;999.90;;;1.50;99.90;;;;;;6740873;88;20182;-80
2022/12/10 15:30:22;;;;;;;1999.90;999.90;;;1.40;99.90;;;;;;6739749;88;20513;-82
2022/12/10 15:40:26;;;;;;;1999.90;999.90;;;1.20;99.90;;;;;;6747235;88;20626;-82
2022/12/10 15:50:29;;;;;;;1999.90;999.90;;;1.10;99.90;;;;;;6750906;88;20207;-81
2022/12/10 16:00:29;;;;;;;1999.90;999.90;;;1.10;99.90;;;;;;6723820;88;20258;-82
2022/12/10 16:10:30;;;;;;;1999.90;999.90;;;1.00;99.90;;;;;;6724195;88;20185;-80
2022/12/10 16:20:32;;;;;;;1999.90;999.90;;;1.00;99.90;;;;;;6731075;88;20286;-81
2022/12/10 16:30:40;;;;;;;1999.90;999.90;;;1.00;99.90;;;;;;6740433;88;20194;-81
2022/12/10 16:40:42;;;;;;;1999.90;999.90;;;1.00;99.90;;;;;;6746688;88;20881;-80
2022/12/10 16:50:44;;;;;;;1999.90;999.90;;;0.90;99.90;;;;;;6746170;88;21059;-80
2022/12/10 17:00:47;;;;;;;1999.90;999.90;;;0.80;99.90;;;;;;6765264;88;20680;-82
2022/12/10 17:21:08;;;;;;;1999.90;999.90;;;0.70;99.90;;;;;;6743139;88;20219;-81
2022/12/10 17:31:08;;;;;;;1999.90;999.90;;;0.60;99.90;;;;;;6744909;88;20984;-79
2022/12/10 17:41:11;;;;;;;1999.90;999.90;;;0.60;99.90;;;;;;6746883;88;20762;-80
2022/12/10 17:51:12;;;;;;;1999.90;999.90;;;0.70;99.90;;;;;;6741448;88;20186;-78
2022/12/10 18:01:13;;;;;;;1999.90;999.90;;;0.50;99.90;;;;;;6742576;88;20799;-80
2022/12/10 18:11:17;;;;;;;1999.90;999.90;;;0.60;99.90;;;;;;6744056;88;20209;-80
2022/12/10 18:21:17;;;;;;;1999.90;999.90;;;0.70;99.90;;;;;;6754298;88;20724;-79
2022/12/10 18:31:30;;;;;;;1999.90;999.90;;;0.70;99.90;;;;;;6750392;88;20217;-81
2022/12/10 18:41:34;;;;;;;1999.90;999.90;;;0.60;99.90;;;;;;6731532;88;20750;-79
2022/12/10 18:51:34;;;;;;;1999.90;999.90;;;0.50;99.90;;;;;;6746953;88;20211;-79
2022/12/10 19:01:35;;;;;;;1999.90;999.90;;;0.30;99.90;;;;;;6735453;88;20660;-78
2022/12/10 19:11:35;;;;;;;1999.90;999.90;;;0.10;99.90;;;;;;6733527;88;21245;-78
2022/12/10 19:21:36;;;;;;;1999.90;999.90;;;0.00;99.90;;;;;;6738704;88;20200;-77
2022/12/10 19:31:36;;;;;;;1999.90;999.90;;;0.00;99.90;;;;;;6734693;88;20548;-79
2022/12/10 19:41:37;;;;;;;1999.90;999.90;;;0.00;99.90;;;;;;6730994;88;20324;-79
2022/12/10 19:51:38;;;;;;;1999.90;999.90;;;0.00;99.90;;;;;;6743896;88;20601;-81
2022/12/10 20:01:38;;;;;;;1999.90;999.90;;;-0.10;99.90;;;;;;6746450;88;20211;-79
2022/12/10 20:11:39;;;;;;;1999.90;999.90;;;-0.20;99.90;;;;;;6751956;88;20174;-79
2022/12/10 20:21:39;;;;;;;1999.90;999.90;;;-0.40;99.90;;;;;;6756331;88;20203;-79
2022/12/10 20:31:40;;;;;;;1999.90;999.90;;;-0.60;99.90;;;;;;6749618;88;20296;-79
2022/12/10 20:41:40;;;;;;;1999.90;999.90;;;-0.60;99.90;;;;;;6749601;88;20191;-80
2022/12/10 20:51:41;;;;;;;1999.90;999.90;;;-0.60;99.90;;;;;;6754831;88;20161;-80
2022/12/10 21:01:42;;;;;;;1999.90;999.90;;;-0.60;99.90;;;;;;6751218;88;20220;-79
2022/12/10 21:11:43;;;;;;;1999.90;999.90;;;-0.40;99.90;;;;;;6749606;88;20217;-80
2022/12/10 21:21:44;;;;;;;1999.90;999.90;;;-0.60;99.90;;;;;;6744707;88;20219;-81
2022/12/10 21:31:45;;;;;;;1999.90;999.90;;;-0.60;99.90;;;;;;6754979;88;20478;-80
2022/12/10 21:52:04;;;;;;;1999.90;999.90;;;-1.00;99.90;;;;;;6730897;88;20213;-81
2022/12/10 22:02:05;;;;;;;1999.90;999.90;;;-1.00;99.90;;;;;;6740563;88;20279;-81
2022/12/10 22:12:06;;;;;;;1999.90;999.90;;;-0.90;99.90;;;;;;6733062;88;20279;-80
2022/12/10 22:22:06;;;;;;;1999.90;999.90;;;-0.70;99.90;;;;;;6746289;88;20185;-78
2022/12/10 22:32:07;;;;;;;1999.90;999.90;;;-0.40;99.90;;;;;;6745883;88;20218;-78
2022/12/10 22:42:08;;;;;;;1999.90;999.90;;;-0.40;99.90;;;;;;6740510;88;20258;-80
2022/12/10 22:52:08;;;;;;;1999.90;999.90;;;-0.30;99.90;;;;;;6739961;88;20194;-77
2022/12/10 23:02:10;;;;;;;1999.90;999.90;;;-0.40;99.90;;;;;;6743089;88;20212;-79
2022/12/10 23:22:30;;;;;;;1999.90;999.90;;;-0.30;99.90;;;;;;6747642;88;20177;-80
2022/12/10 23:32:31;;;;;;;1999.90;999.90;;;-0.30;99.90;;;;;;6752340;88;20198;-79
2022/12/10 23:42:31;;;;;;;1999.90;999.90;;;-0.20;99.90;;;;;;6746712;88;20209;-80
2022/12/10 23:52:32;;;;;;;1999.90;999.90;;;-0.10;99.90;;;;;;6747220;88;21084;-80
